Time;durP1;ratioP1;P1;durP2;ratioP2;P2;SDS_P1;SDS_P2;PMS_P1;PMS_P2;Temp;Humidity;BMP_temperature;BMP_pressure;BME280_temperature;BME280_humidity;BME280_pressure;Samples;Min_cycle;Max_cycle;Signal;HPM_P1;HPM_P2
2022/04/08 00:01:25;;;;;;;17.13;8.27;;;5.80;99.90;;;;;;4879152;29;20185;-65
2022/04/08 00:03:54;;;;;;;20.83;7.37;;;5.80;99.90;;;;;;4879107;29;20209;-64
2022/04/08 00:06:20;;;;;;;20.27;7.77;;;5.80;99.90;;;;;;4879068;29;20193;-65
2022/04/08 00:08:47;;;;;;;19.20;8.30;;;5.80;99.90;;;;;;4878931;29;20196;-64
2022/04/08 00:11:13;;;;;;;19.23;7.40;;;5.70;99.90;;;;;;4878963;29;20193;-65
2022/04/08 00:13:39;;;;;;;20.43;7.77;;;5.70;99.90;;;;;;4878975;29;20536;-65
2022/04/08 00:16:07;;;;;;;21.87;9.00;;;5.70;99.90;;;;;;4879076;29;20188;-65
2022/04/08 00:18:33;;;;;;;18.63;8.00;;;5.80;99.90;;;;;;4878563;29;20332;-65
2022/04/08 00:20:59;;;;;;;22.60;8.47;;;5.80;99.90;;;;;;4879031;29;20193;-65
2022/04/08 00:23:25;;;;;;;19.87;7.97;;;5.80;99.90;;;;;;4878787;29;20203;-64
2022/04/08 00:25:51;;;;;;;18.87;8.47;;;5.80;99.90;;;;;;4879258;29;20257;-65
2022/04/08 00:28:17;;;;;;;21.43;8.63;;;5.70;99.90;;;;;;4878902;29;20274;-64
2022/04/08 00:30:43;;;;;;;22.10;8.07;;;5.70;99.90;;;;;;4878759;29;20199;-65
2022/04/08 00:33:08;;;;;;;17.13;8.60;;;5.70;99.90;;;;;;4878731;29;20267;-65
2022/04/08 00:35:34;;;;;;;17.40;7.63;;;5.60;99.90;;;;;;4878494;29;20675;-65
2022/04/08 00:38:00;;;;;;;23.33;8.40;;;5.60;99.90;;;;;;4878504;29;20676;-65
2022/04/08 00:40:26;;;;;;;22.93;10.03;;;5.50;99.90;;;;;;4878817;29;20194;-65
2022/04/08 00:42:51;;;;;;;20.20;9.93;;;5.50;99.90;;;;;;4878512;29;20192;-64
2022/04/08 00:45:17;;;;;;;25.33;7.77;;;5.40;99.90;;;;;;4878594;29;20219;-64
2022/04/08 00:47:44;;;;;;;21.80;8.87;;;5.40;99.90;;;;;;4878438;29;20192;-64
2022/04/08 00:50:11;;;;;;;20.40;9.17;;;5.30;99.90;;;;;;4878244;29;20227;-64
2022/04/08 00:52:39;;;;;;;21.13;8.63;;;5.20;99.90;;;;;;4877988;29;20621;-65
2022/04/08 00:55:06;;;;;;;21.47;9.53;;;5.20;99.90;;;;;;4878333;29;20248;-65
2022/04/08 00:57:33;;;;;;;22.40;8.77;;;5.10;99.90;;;;;;4878163;29;20254;-63
2022/04/08 01:00:05;;;;;;;17.43;8.67;;;5.10;99.90;;;;;;4878324;29;20593;-65
2022/04/08 01:02:31;;;;;;;21.90;9.63;;;5.10;99.90;;;;;;4878179;29;20181;-64
2022/04/08 01:04:57;;;;;;;25.53;9.60;;;5.00;99.90;;;;;;4878865;29;20184;-65
2022/04/08 01:07:23;;;;;;;25.83;9.90;;;4.90;99.90;;;;;;4861507;29;20184;-64
2022/04/08 01:09:52;;;;;;;20.77;8.97;;;4.90;99.90;;;;;;4878210;29;20211;-65
2022/04/08 01:12:18;;;;;;;28.73;9.70;;;4.80;99.90;;;;;;4878093;29;20180;-65
2022/04/08 01:14:43;;;;;;;22.80;10.53;;;4.80;99.90;;;;;;4878031;29;20192;-65
2022/04/08 01:17:09;;;;;;;23.63;9.40;;;4.80;99.90;;;;;;4878143;29;20642;-65
2022/04/08 01:19:35;;;;;;;21.13;9.17;;;4.80;99.90;;;;;;4877566;29;20556;-64
2022/04/08 01:22:01;;;;;;;19.03;8.87;;;4.80;99.90;;;;;;4878076;29;20663;-65
2022/04/08 01:24:30;;;;;;;24.77;9.63;;;4.80;99.90;;;;;;4878115;29;20549;-65
2022/04/08 01:26:56;;;;;;;20.03;9.63;;;4.90;99.90;;;;;;4878037;29;20220;-65
2022/04/08 01:29:22;;;;;;;26.10;9.90;;;4.90;99.90;;;;;;4877984;29;20184;-65
2022/04/08 01:31:48;;;;;;;23.50;9.23;;;4.80;99.90;;;;;;4878008;29;20633;-65
2022/04/08 01:34:13;;;;;;;28.20;9.77;;;4.80;99.90;;;;;;4877812;29;20188;-65
2022/04/08 01:36:39;;;;;;;17.93;9.33;;;4.80;99.90;;;;;;4877679;29;20192;-64
2022/04/08 01:39:06;;;;;;;18.87;9.07;;;4.70;99.90;;;;;;4878134;29;20231;-65
2022/04/08 01:41:32;;;;;;;21.23;8.70;;;4.70;99.90;;;;;;4878439;29;20216;-65
2022/04/08 01:43:58;;;;;;;28.83;10.43;;;4.60;99.90;;;;;;4876572;29;20272;-65
2022/04/08 01:46:24;;;;;;;24.30;9.60;;;4.70;99.90;;;;;;4877915;29;20587;-65
2022/04/08 01:48:54;;;;;;;17.77;9.73;;;4.70;99.90;;;;;;4877730;29;20196;-64
2022/04/08 01:51:21;;;;;;;22.10;10.50;;;4.70;99.90;;;;;;4878018;29;20668;-65
2022/04/08 01:53:47;;;;;;;24.17;9.83;;;4.80;99.90;;;;;;4877320;29;20236;-65
2022/04/08 01:56:14;;;;;;;23.60;9.47;;;4.90;99.90;;;;;;4878218;29;20664;-65
2022/04/08 01:58:40;;;;;;;26.53;9.83;;;4.90;99.90;;;;;;4878115;29;20234;-65
2022/04/08 02:01:05;;;;;;;24.53;10.27;;;4.90;99.90;;;;;;4881545;29;20200;-65
2022/04/08 02:03:33;;;;;;;19.13;9.97;;;4.80;99.90;;;;;;4881198;29;20200;-65
2022/04/08 02:05:59;;;;;;;20.97;9.43;;;4.80;99.90;;;;;;4881989;29;20199;-65
2022/04/08 02:08:24;;;;;;;21.27;9.50;;;4.70;99.90;;;;;;4881267;29;20212;-65
2022/04/08 02:10:53;;;;;;;28.17;10.07;;;4.60;99.90;;;;;;4881128;29;20212;-64
2022/04/08 02:13:21;;;;;;;21.93;11.23;;;4.50;99.90;;;;;;4881112;29;20188;-65
2022/04/08 02:15:47;;;;;;;27.80;11.30;;;4.70;99.90;;;;;;4880722;29;20586;-66
2022/04/08 02:18:14;;;;;;;25.30;10.53;;;4.70;99.90;;;;;;4880934;29;20279;-67
2022/04/08 02:20:41;;;;;;;27.47;11.37;;;4.60;99.90;;;;;;4880711;29;20185;-67
2022/04/08 02:23:07;;;;;;;31.40;12.27;;;4.70;99.90;;;;;;4881210;29;20177;-67
2022/04/08 02:25:33;;;;;;;26.83;10.20;;;4.70;99.90;;;;;;4880792;29;20515;-67
2022/04/08 02:28:01;;;;;;;38.53;11.70;;;4.70;99.90;;;;;;4864031;29;20293;-67
2022/04/08 02:30:27;;;;;;;23.27;10.23;;;4.60;99.90;;;;;;4880682;29;20560;-66
2022/04/08 02:32:52;;;;;;;27.77;10.87;;;4.70;99.90;;;;;;4880758;29;20196;-66
2022/04/08 02:35:19;;;;;;;25.10;12.03;;;4.60;99.90;;;;;;4880718;29;20188;-66
2022/04/08 02:37:44;;;;;;;31.63;11.27;;;4.50;99.90;;;;;;4880235;29;20248;-66
2022/04/08 02:40:11;;;;;;;24.67;11.57;;;4.50;99.90;;;;;;4880758;29;20192;-66
2022/04/08 02:42:36;;;;;;;23.30;10.57;;;4.50;99.90;;;;;;4880720;29;20185;-65
2022/04/08 02:45:02;;;;;;;24.67;11.10;;;4.40;99.90;;;;;;4880309;29;20279;-66
2022/04/08 02:47:28;;;;;;;22.40;11.03;;;4.30;99.90;;;;;;4880557;29;20192;-67
2022/04/08 02:49:54;;;;;;;27.03;11.87;;;4.20;99.90;;;;;;4880500;29;20180;-66
2022/04/08 02:52:19;;;;;;;29.53;13.07;;;4.30;99.90;;;;;;4880380;29;20664;-66
2022/04/08 02:54:45;;;;;;;34.07;13.77;;;4.20;99.90;;;;;;4880086;29;20319;-67
2022/04/08 02:57:11;;;;;;;28.03;10.37;;;4.20;99.90;;;;;;4880529;29;20188;-67
2022/04/08 02:59:37;;;;;;;23.47;10.37;;;4.10;99.90;;;;;;4880064;29;20260;-67
2022/04/08 03:02:03;;;;;;;27.83;12.23;;;4.10;99.90;;;;;;4880399;29;20188;-66
2022/04/08 03:04:29;;;;;;;30.83;13.07;;;4.00;99.90;;;;;;4880100;29;20209;-67
2022/04/08 03:06:55;;;;;;;34.27;12.47;;;4.00;99.90;;;;;;4880211;29;20219;-67
2022/04/08 03:09:21;;;;;;;25.80;11.37;;;4.20;99.90;;;;;;4880160;29;20266;-66
2022/04/08 03:11:47;;;;;;;24.97;10.23;;;4.30;99.90;;;;;;4878691;29;20184;-66
2022/04/08 03:14:13;;;;;;;18.53;9.90;;;4.70;99.90;;;;;;4880107;29;20220;-67
2022/04/08 03:16:39;;;;;;;22.63;10.93;;;5.00;99.90;;;;;;4879823;29;20231;-66
2022/04/08 03:19:05;;;;;;;28.63;11.33;;;5.30;99.90;;;;;;4879910;29;20569;-66
2022/04/08 03:21:30;;;;;;;24.17;9.93;;;5.50;99.90;;;;;;4879709;29;20211;-67
2022/04/08 03:23:57;;;;;;;21.07;10.60;;;5.70;99.90;;;;;;4879437;29;20221;-67
2022/04/08 03:26:23;;;;;;;29.27;11.27;;;5.80;99.90;;;;;;4879580;29;20197;-67
2022/04/08 03:28:49;;;;;;;16.57;9.90;;;5.90;99.90;;;;;;4879374;29;20706;-68
2022/04/08 03:31:15;;;;;;;26.53;10.20;;;6.00;99.90;;;;;;4879351;29;20183;-67
2022/04/08 03:33:41;;;;;;;17.80;9.53;;;6.20;99.90;;;;;;4879412;29;20281;-60
2022/04/08 03:36:07;;;;;;;21.77;9.80;;;6.30;99.90;;;;;;4879666;29;20185;-66
2022/04/08 03:38:33;;;;;;;26.63;10.33;;;6.30;99.90;;;;;;4879465;29;20222;-67
2022/04/08 03:40:59;;;;;;;29.20;12.60;;;6.40;99.90;;;;;;4879035;29;20742;-66
2022/04/08 03:43:24;;;;;;;20.93;10.57;;;6.40;99.90;;;;;;4879278;29;20229;-67
2022/04/08 03:45:50;;;;;;;27.47;11.03;;;6.20;99.90;;;;;;4879341;29;20187;-67
2022/04/08 03:48:16;;;;;;;19.20;9.37;;;6.20;99.90;;;;;;4879258;29;20198;-66
2022/04/08 03:50:41;;;;;;;20.30;10.07;;;6.30;99.90;;;;;;4878845;29;20230;-60
2022/04/08 03:53:10;;;;;;;20.57;8.97;;;6.30;99.90;;;;;;4878824;29;20644;-69
2022/04/08 03:55:36;;;;;;;22.77;10.80;;;6.40;99.90;;;;;;4878982;29;20274;-67
2022/04/08 03:58:02;;;;;;;40.10;11.87;;;6.60;99.90;;;;;;4878492;29;20355;-66
2022/04/08 04:00:27;;;;;;;17.10;9.30;;;6.60;99.90;;;;;;4878886;29;20191;-67
2022/04/08 04:02:53;;;;;;;19.97;9.67;;;6.70;99.90;;;;;;4878878;29;20292;-67
2022/04/08 04:05:19;;;;;;;15.33;8.87;;;6.80;99.90;;;;;;4878982;29;20187;-68
2022/04/08 04:07:45;;;;;;;18.80;9.63;;;7.00;99.90;;;;;;4879008;29;20191;-67
2022/04/08 04:10:14;;;;;;;24.17;10.27;;;7.30;99.90;;;;;;4878211;29;20191;-68
2022/04/08 04:12:42;;;;;;;25.93;11.53;;;7.50;99.90;;;;;;4865767;29;20563;-68
2022/04/08 04:15:08;;;;;;;32.83;12.67;;;7.60;99.90;;;;;;4878557;29;20724;-68
2022/04/08 04:17:34;;;;;;;50.47;16.70;;;7.50;99.90;;;;;;4878532;29;20185;-68
2022/04/08 04:20:00;;;;;;;45.20;16.30;;;7.40;99.90;;;;;;4878158;29;20200;-68
2022/04/08 04:22:26;;;;;;;51.07;16.70;;;7.40;99.90;;;;;;4877722;29;20633;-66
2022/04/08 04:24:52;;;;;;;38.40;14.40;;;7.50;99.90;;;;;;4877899;29;20199;-67
2022/04/08 04:27:18;;;;;;;45.73;14.73;;;7.50;99.90;;;;;;4877738;29;20251;-69
2022/04/08 04:29:43;;;;;;;37.30;12.73;;;7.60;99.90;;;;;;4861435;29;20195;-61
2022/04/08 04:32:09;;;;;;;38.27;13.63;;;7.80;99.90;;;;;;4877947;29;20641;-70
2022/04/08 04:34:37;;;;;;;33.80;15.30;;;7.90;99.90;;;;;;4877522;29;20419;-67
2022/04/08 04:37:04;;;;;;;33.47;14.37;;;8.00;99.90;;;;;;4877761;29;20232;-67
2022/04/08 04:39:30;;;;;;;39.67;14.03;;;8.30;99.90;;;;;;4877278;29;20222;-67
2022/04/08 04:41:55;;;;;;;31.47;11.50;;;8.40;99.90;;;;;;4877260;29;20200;-69
2022/04/08 04:44:21;;;;;;;32.27;12.07;;;8.50;99.90;;;;;;4860717;29;20192;-66
2022/04/08 04:46:47;;;;;;;27.80;11.60;;;8.60;99.90;;;;;;4877166;29;20192;-67
2022/04/08 04:49:13;;;;;;;24.53;10.03;;;8.80;99.90;;;;;;4877340;29;20228;-66
2022/04/08 04:51:39;;;;;;;21.30;9.47;;;8.80;99.90;;;;;;4877133;29;20225;-67
2022/04/08 04:54:05;;;;;;;24.07;9.70;;;8.80;99.90;;;;;;4876777;29;20601;-67
2022/04/08 04:56:31;;;;;;;23.03;9.30;;;8.90;99.90;;;;;;4876964;29;20249;-68
2022/04/08 04:58:56;;;;;;;22.10;8.83;;;8.90;99.90;;;;;;4877294;29;20336;-66
2022/04/08 05:01:22;;;;;;;26.87;10.70;;;8.90;99.90;;;;;;4860772;29;20198;-74
2022/04/08 05:03:48;;;;;;;28.17;10.30;;;8.90;99.90;;;;;;4877334;29;20643;-74
2022/04/08 05:06:13;;;;;;;26.97;10.50;;;8.90;99.90;;;;;;4877658;29;20826;-74
2022/04/08 05:08:39;;;;;;;24.87;9.90;;;8.90;99.90;;;;;;4858709;29;20202;-64
2022/04/08 05:11:05;;;;;;;24.93;9.60;;;8.90;99.90;;;;;;4880804;29;20770;-63
2022/04/08 05:13:32;;;;;;;22.30;10.10;;;8.90;99.90;;;;;;4865176;29;20189;-61
2022/04/08 05:15:58;;;;;;;24.27;8.67;;;9.00;99.90;;;;;;4876947;29;20198;-61
2022/04/08 05:18:24;;;;;;;35.53;10.53;;;9.20;99.90;;;;;;4876948;29;20214;-62
2022/04/08 05:20:52;;;;;;;16.57;7.13;;;9.30;99.90;;;;;;4876668;29;20281;-69
2022/04/08 05:23:18;;;;;;;14.37;7.10;;;9.60;99.90;;;;;;4877128;29;20194;-67
2022/04/08 05:25:44;;;;;;;21.50;7.90;;;9.90;99.90;;;;;;4860754;29;20677;-65
2022/04/08 05:28:12;;;;;;;16.87;5.63;;;10.10;99.90;;;;;;4876766;29;20239;-66
2022/04/08 05:30:38;;;;;;;24.97;6.83;;;10.40;99.90;;;;;;4877016;29;20202;-69
2022/04/08 05:33:04;;;;;;;8.50;4.87;;;10.70;99.90;;;;;;4876649;29;20185;-68
2022/04/08 05:35:29;;;;;;;9.30;5.33;;;11.00;99.90;;;;;;4880391;29;20193;-69
2022/04/08 05:37:55;;;;;;;10.80;5.53;;;11.30;99.90;;;;;;4870199;29;20332;-68
2022/04/08 05:40:24;;;;;;;22.27;6.80;;;11.60;99.90;;;;;;4865071;29;20348;-68
2022/04/08 05:42:50;;;;;;;21.17;5.90;;;12.00;99.90;;;;;;4865920;29;20312;-71
2022/04/08 05:45:18;;;;;;;13.00;5.03;;;12.40;99.90;;;;;;4876204;29;20207;-71
2022/04/08 05:47:49;;;;;;;9.00;4.80;;;12.90;99.90;;;;;;4872800;29;20211;-69
2022/04/08 05:50:16;;;;;;;17.93;6.53;;;13.30;99.90;;;;;;4873219;29;20204;-71
2022/04/08 05:52:43;;;;;;;6.37;3.63;;;13.70;99.40;;;;;;4864180;29;20714;-69
2022/04/08 05:55:09;;;;;;;7.17;4.03;;;14.10;98.20;;;;;;4878713;29;20323;-71
2022/04/08 05:57:41;;;;;;;9.67;4.13;;;14.10;98.00;;;;;;4872907;29;20207;-67
2022/04/08 06:00:10;;;;;;;8.27;4.50;;;14.10;97.70;;;;;;4880387;29;20252;-68
2022/04/08 06:02:43;;;;;;;7.20;3.87;;;14.10;97.40;;;;;;4879713;29;20552;-69
2022/04/08 06:05:09;;;;;;;11.97;4.67;;;14.10;97.20;;;;;;4878798;29;20200;-67
2022/04/08 06:07:35;;;;;;;16.80;4.73;;;14.30;97.20;;;;;;4878876;29;20199;-67
2022/04/08 06:10:03;;;;;;;19.63;4.97;;;14.30;97.10;;;;;;4878958;29;20637;-68
2022/04/08 06:12:28;;;;;;;13.70;4.70;;;14.30;96.90;;;;;;4879089;29;20634;-68
2022/04/08 06:14:54;;;;;;;8.53;4.40;;;14.30;96.50;;;;;;4879650;29;20203;-67
2022/04/08 06:17:21;;;;;;;11.60;4.27;;;14.20;96.60;;;;;;4880067;29;20274;-68
2022/04/08 06:19:49;;;;;;;10.80;4.37;;;14.20;96.50;;;;;;4874521;29;20303;-67
2022/04/08 06:22:14;;;;;;;9.33;3.97;;;14.20;96.70;;;;;;4864134;29;20235;-64
2022/04/08 06:24:40;;;;;;;20.33;4.33;;;14.40;96.50;;;;;;4877777;29;20703;-68
2022/04/08 06:27:06;;;;;;;16.30;5.63;;;14.30;96.40;;;;;;4877543;29;20199;-67
2022/04/08 06:29:32;;;;;;;12.13;4.97;;;14.30;96.60;;;;;;4863209;29;20503;-68
2022/04/08 06:31:57;;;;;;;30.70;7.53;;;14.20;96.50;;;;;;4879089;29;20215;-65
2022/04/08 06:34:23;;;;;;;12.20;4.60;;;14.20;96.50;;;;;;4874766;29;20200;-67
2022/04/08 06:36:49;;;;;;;15.10;5.97;;;14.40;96.50;;;;;;4879235;29;20196;-65
2022/04/08 06:39:14;;;;;;;11.77;4.77;;;14.50;96.30;;;;;;4878478;29;20212;-67
2022/04/08 06:41:40;;;;;;;16.77;5.60;;;14.80;95.80;;;;;;4879479;29;20311;-65
2022/04/08 06:44:06;;;;;;;11.43;4.73;;;15.10;95.70;;;;;;4879030;29;20189;-67
2022/04/08 06:46:32;;;;;;;8.00;4.00;;;15.40;95.00;;;;;;4874892;29;20705;-67
2022/04/08 06:49:02;;;;;;;17.27;5.53;;;15.60;94.40;;;;;;4870324;29;20237;-66
2022/04/08 06:51:31;;;;;;;12.70;4.57;;;15.50;94.20;;;;;;4879320;29;20206;-66
2022/04/08 06:54:00;;;;;;;13.10;5.23;;;15.50;94.30;;;;;;4875742;29;20239;-72
2022/04/08 06:56:26;;;;;;;15.23;6.27;;;15.60;94.10;;;;;;4878476;29;20197;-67
2022/04/08 06:58:51;;;;;;;13.63;4.77;;;15.70;93.60;;;;;;4850385;29;20238;-66
2022/04/08 07:01:17;;;;;;;17.97;4.60;;;15.50;93.50;;;;;;4860762;29;20586;-66
2022/04/08 07:03:43;;;;;;;13.60;4.87;;;15.70;93.50;;;;;;4878608;29;20550;-65
2022/04/08 07:06:09;;;;;;;15.83;5.47;;;15.90;94.10;;;;;;4879212;29;20597;-67
2022/04/08 07:08:34;;;;;;;23.80;7.30;;;16.10;92.90;;;;;;4877587;29;20243;-67
2022/04/08 07:11:00;;;;;;;15.60;7.60;;;16.10;92.70;;;;;;4858553;29;20196;-66
2022/04/08 07:13:27;;;;;;;11.40;4.20;;;16.00;92.70;;;;;;4860693;29;20181;-67
2022/04/08 07:15:53;;;;;;;8.27;4.10;;;15.90;92.10;;;;;;4860117;29;20284;-65
2022/04/08 07:18:19;;;;;;;7.17;4.37;;;15.90;92.20;;;;;;4846838;29;20221;-67
2022/04/08 07:20:44;;;;;;;17.57;7.50;;;15.90;92.10;;;;;;4879108;29;20653;-67
2022/04/08 07:23:10;;;;;;;7.40;4.20;;;15.90;91.90;;;;;;4878821;29;20197;-67
2022/04/08 07:25:36;;;;;;;9.67;5.40;;;16.00;91.90;;;;;;4879058;29;20185;-69
2022/04/08 07:28:03;;;;;;;7.73;3.37;;;15.90;91.70;;;;;;4878421;29;20362;-67
2022/04/08 07:30:29;;;;;;;16.93;5.50;;;15.80;91.60;;;;;;4878759;29;20279;-68
2022/04/08 07:32:55;;;;;;;18.50;7.93;;;15.90;91.70;;;;;;4878215;29;20314;-66
2022/04/08 07:35:23;;;;;;;18.23;7.10;;;16.00;91.90;;;;;;4878736;29;20194;-66
2022/04/08 07:37:49;;;;;;;15.33;5.97;;;16.00;92.00;;;;;;4877757;29;20185;-66
2022/04/08 07:40:15;;;;;;;11.83;4.23;;;16.40;91.60;;;;;;4864479;29;20204;-67
2022/04/08 07:42:41;;;;;;;17.47;5.33;;;16.40;90.90;;;;;;4859414;29;20189;-66
2022/04/08 07:45:08;;;;;;;31.77;6.37;;;16.40;90.90;;;;;;4859322;29;20188;-66
2022/04/08 07:47:34;;;;;;;7.87;4.43;;;16.60;90.80;;;;;;4859807;29;20482;-68
2022/04/08 07:50:10;;;;;;;17.83;5.23;;;16.70;90.80;;;;;;4857749;29;20265;-68
2022/04/08 07:52:36;;;;;;;13.30;4.43;;;16.80;90.90;;;;;;4859727;29;20188;-66
2022/04/08 07:55:02;;;;;;;13.73;5.00;;;16.60;90.60;;;;;;4859259;29;20333;-68
2022/04/08 07:57:28;;;;;;;10.07;4.37;;;16.40;90.80;;;;;;4859028;29;20545;-68
2022/04/08 07:59:53;;;;;;;8.27;5.00;;;16.30;91.00;;;;;;4858636;29;20619;-68
2022/04/08 08:02:19;;;;;;;13.67;4.77;;;16.20;91.20;;;;;;4860213;29;20192;-69
2022/04/08 08:04:45;;;;;;;8.17;4.20;;;16.20;91.00;;;;;;4859109;29;20181;-66
2022/04/08 08:07:11;;;;;;;5.83;3.90;;;16.10;90.80;;;;;;4859300;29;20545;-66
2022/04/08 08:09:37;;;;;;;7.40;3.40;;;16.10;90.60;;;;;;4855828;29;20574;-66
2022/04/08 08:12:03;;;;;;;10.93;3.70;;;16.20;90.80;;;;;;4859104;29;20193;-67
2022/04/08 08:14:30;;;;;;;10.43;4.10;;;16.30;90.50;;;;;;4859841;29;20638;-66
2022/04/08 08:16:56;;;;;;;12.17;4.23;;;16.40;90.50;;;;;;4858892;29;20216;-68
2022/04/08 08:19:22;;;;;;;7.10;4.00;;;16.50;90.60;;;;;;4869745;29;20623;-67
2022/04/08 08:21:47;;;;;;;9.00;3.67;;;16.60;90.50;;;;;;4877286;29;20200;-69
2022/04/08 08:24:13;;;;;;;6.53;2.90;;;16.80;89.90;;;;;;4875705;29;20609;-67
2022/04/08 08:26:39;;;;;;;11.57;3.50;;;16.90;88.60;;;;;;4877768;29;20189;-68
2022/04/08 08:29:05;;;;;;;12.50;4.00;;;16.90;88.60;;;;;;4877560;29;20197;-69
2022/04/08 08:31:31;;;;;;;6.47;3.13;;;17.30;88.70;;;;;;4860935;29;20195;-68
2022/04/08 08:33:57;;;;;;;9.10;3.63;;;17.60;86.90;;;;;;4877128;29;20491;-68
2022/04/08 08:36:23;;;;;;;9.37;3.30;;;17.80;86.20;;;;;;4877788;29;20192;-68
2022/04/08 08:38:49;;;;;;;4.33;3.00;;;17.80;85.10;;;;;;4873240;29;20209;-65
2022/04/08 08:41:18;;;;;;;11.90;4.03;;;17.90;84.00;;;;;;4858324;29;20212;-67
2022/04/08 08:43:45;;;;;;;8.23;3.77;;;18.10;84.30;;;;;;4857957;29;20181;-66
2022/04/08 08:46:12;;;;;;;10.87;3.07;;;18.40;82.60;;;;;;4857505;29;20200;-66
2022/04/08 08:48:38;;;;;;;10.47;3.00;;;18.20;81.70;;;;;;4859106;29;20193;-71
2022/04/08 08:51:06;;;;;;;10.32;3.53;;;18.40;82.50;;;;;;4856538;29;20297;-71
2022/04/08 08:53:33;;;;;;;9.35;3.83;;;18.60;80.30;;;;;;4857134;29;20204;-71
2022/04/08 08:56:00;;;;;;;9.80;3.00;;;18.90;79.80;;;;;;4858397;29;20290;-71
2022/04/08 08:58:28;;;;;;;12.25;3.17;;;19.10;79.10;;;;;;4858814;29;20213;-70
2022/04/08 09:00:55;;;;;;;6.20;2.70;;;18.70;78.70;;;;;;4855945;29;20527;-71
2022/04/08 09:03:21;;;;;;;8.33;3.17;;;18.40;78.90;;;;;;4856570;29;20196;-70
2022/04/08 09:05:52;;;;;;;6.77;3.30;;;18.30;79.50;;;;;;4858471;29;20522;-72
2022/04/08 09:08:19;;;;;;;6.43;3.70;;;18.40;79.80;;;;;;4856727;29;20196;-69
2022/04/08 09:10:49;;;;;;;7.35;2.85;;;18.80;78.60;;;;;;4857829;29;20185;-72
2022/04/08 09:13:20;;;;;;;5.95;2.70;;;19.10;76.90;;;;;;4858431;29;20181;-71
2022/04/08 09:15:53;;;;;;;4.13;1.92;;;19.20;73.90;;;;;;4858835;29;20189;-71
2022/04/08 09:18:19;;;;;;;8.75;2.55;;;19.40;72.10;;;;;;4859407;29;20204;-70
2022/04/08 09:20:46;;;;;;;10.55;2.05;;;19.50;70.10;;;;;;4875149;29;20218;-72
2022/04/08 09:23:14;;;;;;;8.63;1.80;;;19.70;67.80;;;;;;4874942;29;20582;-72
2022/04/08 09:25:41;;;;;;;12.30;2.00;;;19.70;67.30;;;;;;4875081;29;20260;-70
2022/04/08 09:28:11;;;;;;;8.50;1.92;;;19.60;67.50;;;;;;4874746;29;20694;-71
2022/04/08 09:30:38;;;;;;;16.77;2.17;;;19.70;68.00;;;;;;4875151;29;20236;-69
2022/04/08 09:33:21;;;;;;;6.90;1.70;;;19.60;67.10;;;;;;4875810;29;20707;-73
2022/04/08 09:35:48;;;;;;;18.33;2.97;;;19.50;67.30;;;;;;4876400;29;20199;-71
2022/04/08 09:38:25;;;;;;;41.47;4.32;;;19.10;67.40;;;;;;4876324;29;20216;-71
2022/04/08 09:40:58;;;;;;;8.88;1.80;;;19.00;66.60;;;;;;4860176;29;20216;-73
2022/04/08 09:43:34;;;;;;;13.97;1.63;;;18.90;67.10;;;;;;4877031;29;20220;-73
2022/04/08 09:46:14;;;;;;;13.60;1.80;;;18.80;66.80;;;;;;4876850;29;20188;-71
2022/04/08 09:48:41;;;;;;;6.80;1.83;;;18.80;67.30;;;;;;4876499;29;20184;-72
2022/04/08 09:51:09;;;;;;;14.98;1.45;;;18.70;67.10;;;;;;4876818;29;20236;-71
2022/04/08 09:53:37;;;;;;;9.33;1.47;;;18.50;66.50;;;;;;4876874;29;20196;-72
2022/04/08 09:56:08;;;;;;;7.70;1.80;;;18.20;67.30;;;;;;4876095;29;20290;-70
2022/04/08 09:58:36;;;;;;;8.50;1.43;;;18.10;67.60;;;;;;4876798;29;20208;-70
2022/04/08 10:01:03;;;;;;;6.73;1.40;;;17.90;68.00;;;;;;4876243;29;20207;-71
2022/04/08 10:03:29;;;;;;;8.20;1.33;;;17.60;68.60;;;;;;4876197;29;20181;-70
2022/04/08 10:05:56;;;;;;;6.17;1.17;;;17.60;68.50;;;;;;4875968;29;20223;-71
2022/04/08 10:08:22;;;;;;;6.37;1.50;;;17.40;67.70;;;;;;4859805;29;20224;-72
2022/04/08 10:11:03;;;;;;;13.63;2.33;;;17.30;68.40;;;;;;4876446;29;20193;-71
2022/04/08 10:14:09;;;;;;;3.00;1.30;;;17.30;69.00;;;;;;4861108;29;20599;-71
2022/04/08 10:16:39;;;;;;;7.73;1.47;;;17.40;67.80;;;;;;4844696;29;20198;-71
2022/04/08 10:19:07;;;;;;;3.40;0.97;;;17.60;67.30;;;;;;4875786;29;20614;-70
2022/04/08 10:21:38;;;;;;;7.33;1.30;;;17.60;67.10;;;;;;4879159;29;20593;-71
2022/04/08 10:24:09;;;;;;;9.10;1.00;;;17.50;67.10;;;;;;4879675;29;20299;-71
2022/04/08 10:26:35;;;;;;;2.07;1.17;;;17.30;67.20;;;;;;4879706;29;20272;-72
2022/04/08 10:29:10;;;;;;;2.50;1.10;;;17.20;67.50;;;;;;4880047;29;20554;-71
2022/04/08 10:31:36;;;;;;;6.63;1.00;;;17.40;67.50;;;;;;4879806;29;20547;-72
2022/04/08 10:34:03;;;;;;;4.27;1.20;;;17.50;67.10;;;;;;4879761;29;20240;-72
2022/04/08 10:36:32;;;;;;;16.77;1.57;;;17.60;66.80;;;;;;4879467;29;20188;-71
2022/04/08 10:39:15;;;;;;;21.30;1.77;;;17.60;65.70;;;;;;4879210;29;20216;-72
2022/04/08 10:41:49;;;;;;;32.60;3.30;;;17.50;65.50;;;;;;4879930;29;20244;-71
2022/04/08 10:44:16;;;;;;;15.80;1.50;;;17.30;65.50;;;;;;4880067;29;20191;-70
2022/04/08 10:46:52;;;;;;;9.67;1.30;;;17.10;65.60;;;;;;4879231;29;20248;-71
2022/04/08 10:49:18;;;;;;;19.83;1.67;;;17.10;66.20;;;;;;4879033;29;20188;-71
2022/04/08 10:51:51;;;;;;;11.63;1.30;;;17.00;66.00;;;;;;4879574;29;20184;-71
2022/04/08 10:54:17;;;;;;;13.00;1.77;;;17.20;66.10;;;;;;4879186;29;20236;-71
2022/04/08 10:56:43;;;;;;;8.40;1.27;;;17.50;65.30;;;;;;4877863;29;20195;-72
2022/04/08 10:59:09;;;;;;;15.33;1.40;;;17.60;65.10;;;;;;4879013;29;20220;-71
2022/04/08 11:01:48;;;;;;;9.17;1.27;;;18.00;64.60;;;;;;4878938;29;20676;-69
2022/04/08 11:04:19;;;;;;;7.70;1.17;;;18.10;64.50;;;;;;4878990;29;20192;-72
2022/04/08 11:06:45;;;;;;;10.57;1.13;;;18.20;63.10;;;;;;4879045;29;20188;-71
2022/04/08 11:09:14;;;;;;;9.20;0.93;;;18.20;62.10;;;;;;4862441;29;20544;-72
2022/04/08 11:11:42;;;;;;;12.27;1.23;;;18.20;61.80;;;;;;4879340;29;20673;-72
2022/04/08 11:14:09;;;;;;;8.37;1.00;;;18.20;62.10;;;;;;4878790;29;20321;-72
2022/04/08 11:16:39;;;;;;;8.63;0.93;;;18.30;61.50;;;;;;4879031;29;20521;-72
2022/04/08 11:19:07;;;;;;;10.90;0.93;;;18.00;61.10;;;;;;4878649;29;20335;-73
2022/04/08 11:21:41;;;;;;;7.50;0.90;;;18.00;61.00;;;;;;4878888;29;20189;-72
2022/04/08 11:24:08;;;;;;;4.67;0.73;;;17.90;60.70;;;;;;4878656;29;20275;-72
2022/04/08 11:26:45;;;;;;;4.03;0.90;;;17.70;61.00;;;;;;4878433;29;20192;-73
2022/04/08 11:29:15;;;;;;;7.37;0.97;;;17.50;61.30;;;;;;4878674;29;20580;-71
2022/04/08 11:31:41;;;;;;;15.87;1.17;;;17.50;61.70;;;;;;4877800;29;20185;-73
2022/04/08 11:34:07;;;;;;;6.53;1.20;;;17.50;61.80;;;;;;4878685;29;20193;-73
2022/04/08 11:36:35;;;;;;;5.10;0.90;;;17.70;62.10;;;;;;4878685;29;20533;-72
2022/04/08 11:39:02;;;;;;;3.23;0.90;;;18.10;61.50;;;;;;4878517;29;20302;-73
2022/04/08 11:41:28;;;;;;;15.10;1.57;;;18.30;61.40;;;;;;4878864;29;20192;-72
2022/04/08 11:43:54;;;;;;;4.80;0.70;;;18.40;60.30;;;;;;4878648;29;20219;-73
2022/04/08 11:46:20;;;;;;;5.20;0.63;;;18.50;60.10;;;;;;4878304;29;20208;-73
2022/04/08 11:48:46;;;;;;;8.73;1.10;;;18.90;59.40;;;;;;4878650;29;20200;-74
2022/04/08 11:51:12;;;;;;;12.07;1.20;;;19.00;58.80;;;;;;4877186;29;20803;-72
2022/04/08 11:53:46;;;;;;;1.67;0.70;;;19.30;58.40;;;;;;4878809;29;20193;-72
2022/04/08 11:56:23;;;;;;;2.13;0.32;;;20.50;57.00;;;;;;4878594;29;20211;-74
2022/04/08 11:58:54;;;;;;;1.67;0.70;;;21.20;55.40;;;;;;4878140;29;20218;-70
2022/04/08 12:01:20;;;;;;;4.38;1.15;;;22.00;53.60;;;;;;4877393;29;20196;-72
2022/04/08 12:03:51;;;;;;;3.13;0.60;;;22.30;53.60;;;;;;4878638;29;20559;-72
2022/04/08 12:06:18;;;;;;;5.45;0.70;;;23.20;51.00;;;;;;4878192;29;20185;-73
2022/04/08 12:08:48;;;;;;;5.40;0.70;;;23.60;50.20;;;;;;4862119;29;20193;-74
2022/04/08 12:11:15;;;;;;;4.60;1.10;;;23.90;49.40;;;;;;4877965;29;20621;-71
2022/04/08 12:13:42;;;;;;;2.30;0.45;;;24.20;48.80;;;;;;4878479;29;20636;-73
2022/04/08 12:16:13;;;;;;;1.25;0.50;;;23.70;48.10;;;;;;4878088;29;20223;-70
2022/04/08 12:18:51;;;;;;;5.03;1.20;;;23.50;48.80;;;;;;4877692;29;20254;-73
2022/04/08 12:21:25;;;;;;;10.32;1.30;;;23.10;50.00;;;;;;4877764;29;20227;-74
2022/04/08 12:23:52;;;;;;;3.88;0.65;;;23.50;47.80;;;;;;4878009;29;20537;-74
2022/04/08 12:26:18;;;;;;;7.45;0.80;;;22.60;49.00;;;;;;4877939;29;20246;-74
2022/04/08 12:28:45;;;;;;;2.70;0.63;;;22.10;50.20;;;;;;4877827;29;20295;-72
2022/04/08 12:31:12;;;;;;;10.07;1.00;;;21.90;50.10;;;;;;4877621;29;20176;-73
2022/04/08 12:33:38;;;;;;;12.55;1.15;;;21.50;49.40;;;;;;4845813;29;20208;-76
2022/04/08 12:36:09;;;;;;;6.57;0.80;;;21.00;50.60;;;;;;4877654;29;20184;-72
2022/04/08 12:38:39;;;;;;;4.57;0.73;;;21.80;49.60;;;;;;4877757;29;20215;-72
2022/04/08 12:41:05;;;;;;;4.22;0.88;;;22.20;47.80;;;;;;4861292;29;20328;-72
2022/04/08 12:43:32;;;;;;;5.07;0.70;;;23.20;47.10;;;;;;4876667;29;20271;-74